createdAt,value
2022-09-10T00:01:36.607Z,100327.75
2022-09-10T00:04:11.748Z,100327.96
2022-09-10T00:06:40.432Z,100334.55
2022-09-10T00:09:09.862Z,100333.27
2022-09-10T00:11:41.070Z,100326.98
2022-09-10T00:14:18.742Z,100336.86
2022-09-10T00:16:47.501Z,100338.84
2022-09-10T00:19:16.683Z,100337.80
2022-09-10T00:21:44.544Z,100342.52
2022-09-10T00:24:12.791Z,100346.38
2022-09-10T00:26:40.621Z,100341.32
2022-09-10T00:29:12.666Z,100348.60
2022-09-10T00:31:40.619Z,100346.91
2022-09-10T00:34:11.682Z,100344.98
2022-09-10T00:36:42.114Z,100341.28
2022-09-10T00:39:17.189Z,100337.34
2022-09-10T00:41:47.857Z,100335.67
2022-09-10T00:44:39.458Z,100338.36
2022-09-10T00:47:23.701Z,100339.42
2022-09-10T00:50:01.015Z,100343.73
2022-09-10T00:52:29.325Z,100341.82
2022-09-10T00:54:58.782Z,100340.36
2022-09-10T00:57:28.931Z,100338.42
2022-09-10T01:00:05.637Z,100345.77
2022-09-10T01:02:33.851Z,100341.05
2022-09-10T01:05:04.581Z,100339.84
2022-09-10T01:07:33.665Z,100341.05
2022-09-10T01:10:12.813Z,100342.95
2022-09-10T01:13:13.366Z,100339.16
2022-09-10T01:15:55.208Z,100335.60
2022-09-10T01:18:49.608Z,100341.52
2022-09-10T01:22:05.262Z,100336.30
2022-09-10T01:25:03.096Z,100337.74
2022-09-10T01:27:44.170Z,100336.38
2022-09-10T01:30:24.472Z,100328.88
2022-09-10T01:33:35.906Z,100330.23
2022-09-10T01:36:12.619Z,100328.13
2022-09-10T01:38:43.743Z,100327.25
2022-09-10T01:41:13.196Z,100338.10
2022-09-10T01:43:43.366Z,100336.98
2022-09-10T01:46:28.254Z,100336.27
2022-09-10T01:49:31.486Z,100336.40
2022-09-10T01:52:54.555Z,100343.01
2022-09-10T01:55:54.665Z,100342.76
2022-09-10T01:58:42.974Z,100342.41
2022-09-10T02:01:28.806Z,100346.58
2022-09-10T02:04:01.467Z,100350.43
2022-09-10T02:06:34.422Z,100347.58
2022-09-10T02:09:04.260Z,100347.13
2022-09-10T02:11:43.742Z,100347.54
2022-09-10T02:14:14.226Z,100346.52
2022-09-10T02:17:02.417Z,100346.27
2022-09-10T02:19:30.168Z,100343.19
2022-09-10T02:21:58.840Z,100342.50
2022-09-10T02:24:27.187Z,100344.29
2022-09-10T02:26:54.933Z,100346.36
2022-09-10T02:29:23.309Z,100347.71
2022-09-10T02:31:51.257Z,100346.48
2022-09-10T02:34:20.332Z,100347.15
2022-09-10T02:36:49.493Z,100341.89
2022-09-10T02:39:17.234Z,100339.23
2022-09-10T02:41:48.022Z,100338.05
2022-09-10T02:44:16.026Z,100333.02
2022-09-10T02:46:45.034Z,100338.53
2022-09-10T02:49:12.988Z,100340.82
2022-09-10T02:51:42.343Z,100342.35
2022-09-10T02:54:10.267Z,100341.20
2022-09-10T02:56:38.061Z,100337.41
2022-09-10T02:59:06.322Z,100337.08
2022-09-10T03:01:34.821Z,100335.70
2022-09-10T03:04:05.046Z,100333.17
2022-09-10T03:06:33.083Z,100336.05
2022-09-10T03:09:02.129Z,100334.28
2022-09-10T03:11:30.068Z,100339.10
2022-09-10T03:13:58.887Z,100343.20
2022-09-10T03:16:26.900Z,100344.27
2022-09-10T03:18:56.075Z,100348.90
2022-09-10T03:21:25.143Z,100354.17
2022-09-10T03:23:56.784Z,100358.04
2022-09-10T03:26:27.124Z,100357.27
2022-09-10T03:28:55.146Z,100368.62
2022-09-10T03:31:27.314Z,100368.55
2022-09-10T03:33:55.308Z,100362.98
2022-09-10T03:36:23.334Z,100366.78
2022-09-10T03:38:51.382Z,100365.20
2022-09-10T03:41:19.157Z,100367.00
2022-09-10T03:43:47.351Z,100363.44
2022-09-10T03:46:16.128Z,100362.73
2022-09-10T03:48:44.865Z,100363.25
2022-09-10T03:51:12.892Z,100358.81
2022-09-10T03:53:40.861Z,100362.15
2022-09-10T03:56:11.870Z,100355.60
2022-09-10T03:58:40.319Z,100362.23
2022-09-10T04:01:09.359Z,100361.77
2022-09-10T04:03:37.594Z,100363.91
2022-09-10T04:06:10.326Z,100354.89
2022-09-10T04:08:38.870Z,100358.49
2022-09-10T04:11:09.478Z,100359.20
2022-09-10T04:13:37.309Z,100359.19
2022-09-10T04:16:05.613Z,100361.42
2022-09-10T04:18:34.163Z,100359.61
2022-09-10T04:21:03.626Z,100360.56
2022-09-10T04:23:32.799Z,100359.13
2022-09-10T04:26:16.721Z,100352.48
2022-09-10T04:28:46.947Z,100356.36
2022-09-10T04:31:16.071Z,100359.83
2022-09-10T04:33:44.936Z,100362.13
2022-09-10T04:36:14.672Z,100357.34
2022-09-10T04:38:43.456Z,100353.94
2022-09-10T04:41:15.561Z,100354.05
2022-09-10T04:43:44.198Z,100353.66
2022-09-10T04:46:12.253Z,100353.07
2022-09-10T04:48:43.159Z,100351.63
2022-09-10T04:51:17.454Z,100353.23
2022-09-10T04:53:54.193Z,100349.22
2022-09-10T04:56:26.394Z,100347.77
2022-09-10T04:58:54.400Z,100340.42
2022-09-10T05:01:22.215Z,100341.23
2022-09-10T05:03:52.946Z,100338.01
2022-09-10T05:06:20.641Z,100334.74
2022-09-10T05:08:49.607Z,100336.53
2022-09-10T05:11:19.739Z,100335.33
2022-09-10T05:13:47.913Z,100336.63
2022-09-10T05:16:19.014Z,100334.83
2022-09-10T05:18:46.825Z,100330.55
2022-09-10T05:21:18.149Z,100332.96
2022-09-10T05:23:46.307Z,100336.09
2022-09-10T05:26:14.089Z,100335.41
2022-09-10T05:28:42.687Z,100334.70
2022-09-10T05:31:13.247Z,100332.17
2022-09-10T05:33:43.360Z,100328.98
2022-09-10T05:36:13.199Z,100327.84
2022-09-10T05:38:42.045Z,100322.08
2022-09-10T05:41:10.757Z,100321.35
2022-09-10T05:43:42.121Z,100318.14
2022-09-10T05:46:11.312Z,100319.88
2022-09-10T05:48:41.955Z,100315.86
2022-09-10T05:51:11.498Z,100316.05
2022-09-10T05:53:41.812Z,100315.83
2022-09-10T05:56:09.674Z,100313.52
2022-09-10T05:58:39.003Z,100319.14
2022-09-10T06:01:08.432Z,100317.05
2022-09-10T06:03:36.351Z,100321.54
2022-09-10T06:06:04.157Z,100312.28
2022-09-10T06:08:37.786Z,100319.70
2022-09-10T06:11:11.782Z,100321.86
2022-09-10T06:13:46.557Z,100317.08
2022-09-10T06:16:15.261Z,100324.30
2022-09-10T06:18:44.585Z,100319.02
2022-09-10T06:21:19.136Z,100323.96
2022-09-10T06:23:54.482Z,100321.63
2022-09-10T06:26:24.575Z,100320.89
2022-09-10T06:28:56.857Z,100325.65
2022-09-10T06:31:25.662Z,100328.57
2022-09-10T06:33:55.042Z,100334.48
2022-09-10T06:36:28.651Z,100335.67
2022-09-10T06:38:58.153Z,100339.98
2022-09-10T06:41:27.044Z,100338.59
2022-09-10T06:44:01.346Z,100339.64
2022-09-10T06:47:17.825Z,100339.63
2022-09-10T06:49:24.773Z,100345.16
2022-09-10T06:51:53.316Z,100345.23
2022-09-10T06:54:21.095Z,100341.91
2022-09-10T06:56:49.299Z,100344.05
2022-09-10T06:59:18.399Z,100344.10
2022-09-10T07:01:49.370Z,100346.74
2022-09-10T07:04:18.414Z,100346.13
2022-09-10T07:06:46.606Z,100345.25
2022-09-10T07:09:18.079Z,100346.10
2022-09-10T07:11:53.543Z,100350.16
2022-09-10T07:14:21.390Z,100348.80
2022-09-10T07:16:51.310Z,100348.95
2022-09-10T07:19:20.558Z,100348.97
2022-09-10T07:21:50.093Z,100343.15
2022-09-10T07:24:20.029Z,100341.89
2022-09-10T07:26:58.842Z,100333.02
2022-09-10T07:29:31.035Z,100334.75
2022-09-10T07:31:59.974Z,100333.14
2022-09-10T07:34:28.049Z,100333.09
2022-09-10T07:36:56.749Z,100332.73
2022-09-10T07:39:25.980Z,100332.91
2022-09-10T07:41:55.048Z,100337.79
2022-09-10T07:44:26.205Z,100338.27
2022-09-10T07:46:54.346Z,100336.39
2022-09-10T07:49:22.316Z,100341.22
2022-09-10T07:51:57.697Z,100338.36
2022-09-10T07:54:29.883Z,100339.02
2022-09-10T07:56:58.445Z,100338.88
2022-09-10T07:59:27.553Z,100334.86
2022-09-10T08:02:00.078Z,100329.63
2022-09-10T08:04:36.728Z,100333.34
2022-09-10T08:07:07.190Z,100333.09
2022-09-10T08:09:36.620Z,100336.03
2022-09-10T08:12:07.639Z,100338.38
2022-09-10T08:14:38.117Z,100339.54
2022-09-10T08:17:05.997Z,100336.87
2022-09-10T08:19:37.735Z,100338.63
2022-09-10T08:22:08.221Z,100341.52
2022-09-10T08:24:41.828Z,100338.80
2022-09-10T08:27:11.675Z,100339.42
2022-09-10T08:29:39.686Z,100339.66
2022-09-10T08:32:12.920Z,100339.88
2022-09-10T08:34:41.346Z,100342.02
2022-09-10T08:37:10.681Z,100343.86
2022-09-10T08:39:39.156Z,100347.54
2022-09-10T08:42:27.788Z,100349.52
2022-09-10T08:45:14.882Z,100354.41
2022-09-10T08:48:00.720Z,100354.69
2022-09-10T08:51:03.649Z,100356.40
2022-09-10T08:53:59.762Z,100357.81
2022-09-10T08:56:28.550Z,100361.71
2022-09-10T08:59:32.569Z,100363.77
2022-09-10T09:02:31.583Z,100364.33
2022-09-10T09:05:28.832Z,100361.23
2022-09-10T09:08:00.525Z,100363.23
2022-09-10T09:11:04.063Z,100360.86
2022-09-10T09:13:54.032Z,100359.48
2022-09-10T09:16:46.080Z,100359.30
2022-09-10T09:19:34.586Z,100365.11
2022-09-10T09:22:19.404Z,100359.83
2022-09-10T09:25:07.186Z,100356.42
2022-09-10T09:27:41.696Z,100357.66
2022-09-10T09:30:23.203Z,100358.41
2022-09-10T09:32:51.517Z,100354.65
2022-09-10T09:35:38.720Z,100360.11
2022-09-10T09:38:06.675Z,100361.79
2022-09-10T09:40:58.079Z,100360.22
2022-09-10T09:43:56.151Z,100361.55
2022-09-10T09:46:24.587Z,100364.85
2022-09-10T09:49:03.874Z,100364.52
2022-09-10T09:51:36.585Z,100362.56
2022-09-10T09:57:03.326Z,100365.31
2022-09-10T09:59:37.008Z,100361.96
2022-09-10T10:02:19.127Z,100361.10
2022-09-10T10:05:24.571Z,100357.14
2022-09-10T10:07:52.763Z,100352.18
2022-09-10T10:10:26.269Z,100353.87
2022-09-10T10:12:55.332Z,100354.50
2022-09-10T10:15:42.375Z,100359.67
2022-09-10T10:18:22.210Z,100361.52
2022-09-10T10:21:11.807Z,100361.18
2022-09-10T10:23:40.114Z,100357.73
2022-09-10T10:26:20.336Z,100353.93
2022-09-10T10:28:52.312Z,100357.99
2022-09-10T10:31:20.560Z,100355.42
2022-09-10T10:34:19.383Z,100356.11
2022-09-10T10:37:17.183Z,100356.71
2022-09-10T10:40:14.524Z,100356.46
2022-09-10T10:43:11.151Z,100356.52
2022-09-10T10:46:03.319Z,100358.84
2022-09-10T10:48:57.694Z,100364.83
2022-09-10T10:52:03.967Z,100366.14
2022-09-10T10:55:08.799Z,100369.41
2022-09-10T10:58:21.953Z,100370.38
2022-09-10T11:00:59.567Z,100368.08
2022-09-10T11:03:45.741Z,100369.05
2022-09-10T11:06:18.927Z,100367.08
2022-09-10T11:08:57.449Z,100367.45
2022-09-10T11:11:52.450Z,100368.30
2022-09-10T11:14:45.987Z,100370.26
2022-09-10T11:17:43.032Z,100367.58
2022-09-10T11:20:33.353Z,100366.21
2022-09-10T11:23:39.357Z,100367.29
2022-09-10T11:26:25.033Z,100358.12
2022-09-10T11:29:14.582Z,100354.98
2022-09-10T11:31:49.945Z,100355.40
2022-09-10T11:34:35.507Z,100351.30
2022-09-10T11:37:20.220Z,100348.45
2022-09-10T11:39:55.979Z,100341.47
2022-09-10T11:42:36.066Z,100335.46
2022-09-10T11:45:22.033Z,100332.44
2022-09-10T11:48:17.673Z,100330.16
2022-09-10T11:51:08.118Z,100331.39
2022-09-10T11:53:37.154Z,100328.00
2022-09-10T11:56:18.526Z,100328.20
2022-09-10T11:59:17.946Z,100324.28
2022-09-10T12:02:23.443Z,100322.29
2022-09-10T12:05:19.686Z,100318.52
2022-09-10T12:07:59.938Z,100317.77
2022-09-10T12:11:01.652Z,100315.32
2022-09-10T12:13:29.829Z,100309.71
2022-09-10T12:16:05.306Z,100312.48
2022-09-10T12:18:47.832Z,100309.20
2022-09-10T12:21:49.517Z,100306.25
2022-09-10T12:24:36.284Z,100305.09
2022-09-10T12:27:06.966Z,100303.91
2022-09-10T12:29:43.457Z,100302.56
2022-09-10T12:32:20.331Z,100299.55
2022-09-10T12:35:08.476Z,100297.90
2022-09-10T12:37:36.197Z,100293.66
2022-09-10T12:40:45.573Z,100293.64
2022-09-10T12:43:38.928Z,100291.09
2022-09-10T12:46:07.177Z,100289.39
2022-09-10T12:48:55.444Z,100291.05
2022-09-10T12:51:58.112Z,100286.41
2022-09-10T12:55:13.724Z,100284.66
2022-09-10T12:58:24.405Z,100282.55
2022-09-10T13:00:55.102Z,100279.90
2022-09-10T13:03:27.846Z,100283.15
2022-09-10T13:05:59.478Z,100281.94
2022-09-10T13:08:43.382Z,100275.61
2022-09-10T13:11:23.749Z,100278.23
2022-09-10T13:14:03.599Z,100272.93
2022-09-10T13:16:31.219Z,100270.89
2022-09-10T13:19:14.001Z,100271.11
2022-09-10T13:21:44.489Z,100264.25
2022-09-10T13:24:36.120Z,100266.10
2022-09-10T13:27:13.215Z,100265.86
2022-09-10T13:29:46.190Z,100264.59
2022-09-10T13:32:58.554Z,100264.38
2022-09-10T13:35:56.639Z,100261.73
2022-09-10T13:38:54.042Z,100262.05
2022-09-10T13:41:47.137Z,100255.27
2022-09-10T13:44:34.515Z,100256.63
2022-09-10T13:47:11.616Z,100256.86
2022-09-10T13:50:11.791Z,100252.99
2022-09-10T13:52:44.443Z,100254.83
2022-09-10T13:55:23.231Z,100250.92
2022-09-10T13:57:56.426Z,100247.34
2022-09-10T14:00:41.788Z,100247.73
2022-09-10T14:03:22.411Z,100248.84
2022-09-10T14:05:55.784Z,100248.97
2022-09-10T14:08:31.145Z,100251.19
2022-09-10T14:11:11.768Z,100251.14
2022-09-10T14:13:55.310Z,100249.53
2022-09-10T14:16:36.551Z,100251.70
2022-09-10T14:19:11.433Z,100253.16
2022-09-10T14:21:39.250Z,100250.36
2022-09-10T14:24:39.546Z,100244.63
2022-09-10T14:27:22.838Z,100240.05
2022-09-10T14:29:51.127Z,100237.98
2022-09-10T14:32:33.705Z,100233.84
2022-09-10T14:35:37.827Z,100233.27
2022-09-10T14:38:31.027Z,100226.58
2022-09-10T14:41:05.606Z,100222.75
2022-09-10T14:43:40.553Z,100219.67
2022-09-10T14:46:13.513Z,100218.13
2022-09-10T14:49:04.681Z,100216.05
2022-09-10T14:51:32.472Z,100220.34
2022-09-10T14:54:00.199Z,100216.98
2022-09-10T14:56:36.340Z,100218.95
2022-09-10T14:59:41.783Z,100220.71
2022-09-10T15:02:22.971Z,100221.56
2022-09-10T15:04:50.942Z,100222.70
2022-09-10T15:07:19.141Z,100224.41
2022-09-10T15:09:46.986Z,100223.31
2022-09-10T15:12:14.962Z,100221.85
2022-09-10T15:14:42.634Z,100216.73
2022-09-10T15:17:14.071Z,100214.71
2022-09-10T15:19:41.895Z,100216.13
2022-09-10T15:22:25.289Z,100217.00
2022-09-10T15:25:11.306Z,100218.41
2022-09-10T15:27:39.609Z,100218.64
2022-09-10T15:30:08.006Z,100217.83
2022-09-10T15:32:35.779Z,100217.86
2022-09-10T15:35:04.423Z,100215.70
2022-09-10T15:37:32.728Z,100213.00
2022-09-10T15:40:01.068Z,100216.35
2022-09-10T15:42:30.809Z,100216.06
2022-09-10T15:44:58.617Z,100220.47
2022-09-10T15:47:27.419Z,100225.73
2022-09-10T15:49:56.370Z,100221.81
2022-09-10T15:52:24.202Z,100223.23
2022-09-10T15:54:52.411Z,100225.63
2022-09-10T15:57:20.239Z,100228.04
2022-09-10T15:59:47.991Z,100228.89
2022-09-10T16:02:15.865Z,100234.88
2022-09-10T16:04:44.366Z,100234.81
2022-09-10T16:07:12.090Z,100241.76
2022-09-10T16:09:40.390Z,100244.27
2022-09-10T16:12:08.260Z,100246.98
2022-09-10T16:14:36.017Z,100241.86
2022-09-10T16:17:10.375Z,100243.95
2022-09-10T16:19:38.762Z,100242.38
2022-09-10T16:22:06.662Z,100245.52
2022-09-10T16:24:34.519Z,100248.54
2022-09-10T16:27:02.465Z,100246.83
2022-09-10T16:29:31.202Z,100246.92
2022-09-10T16:31:59.838Z,100246.62
2022-09-10T16:34:27.636Z,100249.45
2022-09-10T16:36:55.342Z,100245.77
2022-09-10T16:39:23.269Z,100247.84
2022-09-10T16:41:51.087Z,100245.34
2022-09-10T16:44:19.309Z,100246.73
2022-09-10T16:46:47.799Z,100250.33
2022-09-10T16:49:18.432Z,100251.14
2022-09-10T16:51:49.169Z,100252.59
2022-09-10T16:54:21.278Z,100251.09
2022-09-10T16:56:50.339Z,100249.09
2022-09-10T16:59:23.661Z,100248.90
2022-09-10T17:01:52.483Z,100242.02
2022-09-10T17:04:28.170Z,100237.71
2022-09-10T17:06:58.078Z,100236.02
2022-09-10T17:09:26.066Z,100236.55
2022-09-10T17:11:53.869Z,100236.34
2022-09-10T17:14:21.738Z,100241.14
2022-09-10T17:16:49.917Z,100247.91
2022-09-10T17:19:23.537Z,100250.19
2022-09-10T17:21:55.464Z,100248.33
2022-09-10T17:24:26.655Z,100247.66
2022-09-10T17:26:57.955Z,100246.94
2022-09-10T17:29:26.205Z,100245.55
2022-09-10T17:31:57.640Z,100250.82
2022-09-10T17:34:26.465Z,100247.83
2022-09-10T17:36:54.557Z,100247.61
2022-09-10T17:39:28.043Z,100249.58
2022-09-10T17:41:56.423Z,100249.50
2022-09-10T17:44:25.578Z,100255.56
2022-09-10T17:46:53.559Z,100252.55
2022-09-10T17:49:21.277Z,100254.35
2022-09-10T17:51:48.992Z,100257.50
2022-09-10T17:54:18.150Z,100263.16
2022-09-10T17:56:45.880Z,100270.27
2022-09-10T17:59:14.259Z,100272.77
2022-09-10T18:01:42.958Z,100275.98
2022-09-10T18:04:15.667Z,100276.48
2022-09-10T18:06:46.791Z,100280.11
2022-09-10T18:09:17.320Z,100278.31
2022-09-10T18:11:45.096Z,100277.67
2022-09-10T18:14:21.449Z,100276.52
2022-09-10T18:16:49.370Z,100276.48
2022-09-10T18:19:18.304Z,100282.67
2022-09-10T18:21:47.919Z,100279.83
2022-09-10T18:24:28.090Z,100282.00
2022-09-10T18:26:56.448Z,100279.73
2022-09-10T18:29:27.800Z,100279.96
2022-09-10T18:32:00.564Z,100277.48
2022-09-10T18:34:31.062Z,100275.58
2022-09-10T18:37:02.460Z,100270.80
2022-09-10T18:39:33.202Z,100270.50
2022-09-10T18:42:01.187Z,100269.70
2022-09-10T18:44:34.375Z,100271.98
2022-09-10T18:47:03.292Z,100269.38
2022-09-10T18:49:31.041Z,100267.92
2022-09-10T18:51:59.303Z,100267.17
2022-09-10T18:54:30.119Z,100265.14
2022-09-10T18:56:58.094Z,100269.09
2022-09-10T18:59:26.641Z,100266.96
2022-09-10T19:01:55.849Z,100273.18
2022-09-10T19:04:27.914Z,100278.80
2022-09-10T19:06:57.533Z,100283.07
2022-09-10T19:09:29.422Z,100282.36
2022-09-10T19:12:00.391Z,100280.70
2022-09-10T19:14:31.849Z,100280.73
2022-09-10T19:17:01.501Z,100284.54
2022-09-10T19:19:33.027Z,100282.38
2022-09-10T19:22:06.066Z,100280.67
2022-09-10T19:24:54.127Z,100275.84
2022-09-10T19:27:24.237Z,100272.21
2022-09-10T19:29:53.357Z,100271.17
2022-09-10T19:32:21.922Z,100268.61
2022-09-10T19:34:51.267Z,100267.34
2022-09-10T19:37:19.912Z,100268.96
2022-09-10T19:39:47.887Z,100270.94
2022-09-10T19:42:16.305Z,100272.44
2022-09-10T19:44:44.137Z,100275.52
2022-09-10T19:47:11.816Z,100273.02
2022-09-10T19:49:39.633Z,100273.93
2022-09-10T19:52:07.363Z,100273.04
2022-09-10T19:54:35.047Z,100277.47
2022-09-10T19:57:02.744Z,100273.02
2022-09-10T19:59:30.466Z,100267.45
2022-09-10T20:01:58.376Z,100270.28
2022-09-10T20:04:27.590Z,100269.54
2022-09-10T20:06:55.282Z,100273.94
2022-09-10T20:09:23.014Z,100272.53
2022-09-10T20:11:51.257Z,100275.20
2022-09-10T20:14:20.206Z,100275.69
2022-09-10T20:16:47.984Z,100275.00
2022-09-10T20:19:18.502Z,100277.55
2022-09-10T20:21:47.658Z,100275.74
2022-09-10T20:24:16.596Z,100271.40
2022-09-10T20:26:46.236Z,100268.04
2022-09-10T20:29:17.982Z,100269.63
2022-09-10T20:31:46.954Z,100270.50
2022-09-10T20:34:19.693Z,100270.06
2022-09-10T20:36:52.457Z,100269.20
2022-09-10T20:39:25.280Z,100269.58
2022-09-10T20:41:53.108Z,100267.45
2022-09-10T20:44:21.018Z,100272.91
2022-09-10T20:46:49.160Z,100272.68
2022-09-10T20:49:17.518Z,100275.17
2022-09-10T20:51:45.450Z,100275.40
2022-09-10T20:54:17.106Z,100275.90
2022-09-10T20:56:45.888Z,100277.56
2022-09-10T20:59:16.736Z,100274.52
2022-09-10T21:01:46.284Z,100272.92
2022-09-10T21:04:14.829Z,100271.03
2022-09-10T21:06:43.021Z,100267.63
2022-09-10T21:09:11.910Z,100270.29
2022-09-10T21:11:39.883Z,100275.41
2022-09-10T21:14:08.595Z,100273.02
2022-09-10T21:16:40.394Z,100268.36
2022-09-10T21:19:15.610Z,100264.42
2022-09-10T21:21:45.688Z,100268.83
2022-09-10T21:24:17.400Z,100261.61
2022-09-10T21:26:45.855Z,100256.46
2022-09-10T21:29:17.197Z,100261.96
2022-09-10T21:31:45.798Z,100260.30
2022-09-10T21:34:14.842Z,100265.90
2022-09-10T21:36:43.794Z,100263.14
2022-09-10T21:39:17.354Z,100261.73
2022-09-10T21:41:48.866Z,100262.80
2022-09-10T21:44:22.875Z,100263.73
2022-09-10T21:46:51.764Z,100264.92
2022-09-10T21:49:20.574Z,100260.89
2022-09-10T21:51:48.437Z,100263.52
2022-09-10T21:54:20.819Z,100261.20
2022-09-10T21:56:50.646Z,100258.67
2022-09-10T21:59:20.358Z,100254.80
2022-09-10T22:01:49.032Z,100253.40
2022-09-10T22:04:22.079Z,100248.45
2022-09-10T22:06:51.370Z,100250.74
2022-09-10T22:09:20.500Z,100249.41
2022-09-10T22:11:51.779Z,100252.75
2022-09-10T22:14:23.290Z,100257.52
2022-09-10T22:16:52.230Z,100257.52
2022-09-10T22:19:25.769Z,100253.98
2022-09-10T22:21:54.208Z,100249.30
2022-09-10T22:24:22.161Z,100249.90
2022-09-10T22:26:50.047Z,100252.40
2022-09-10T22:29:20.316Z,100252.14
2022-09-10T22:31:50.085Z,100246.77
2022-09-10T22:34:19.067Z,100250.95
2022-09-10T22:36:49.412Z,100258.75
2022-09-10T22:39:20.226Z,100257.48
2022-09-10T22:41:50.489Z,100263.38
2022-09-10T22:44:19.371Z,100262.09
2022-09-10T22:46:47.731Z,100264.38
2022-09-10T22:49:17.050Z,100262.29
2022-09-10T22:51:44.903Z,100252.80
2022-09-10T22:54:13.738Z,100250.86
2022-09-10T22:56:41.981Z,100250.13
2022-09-10T22:59:13.862Z,100249.84
2022-09-10T23:01:43.310Z,100250.08
2022-09-10T23:04:11.353Z,100247.20
2022-09-10T23:06:40.051Z,100247.90
2022-09-10T23:09:12.764Z,100244.95
2022-09-10T23:11:41.826Z,100247.20
2022-09-10T23:14:22.178Z,100247.41
2022-09-10T23:16:51.752Z,100247.11
2022-09-10T23:19:24.109Z,100246.07
2022-09-10T23:21:55.059Z,100242.90
2022-09-10T23:24:26.434Z,100237.56
2022-09-10T23:26:55.283Z,100244.39
2022-09-10T23:29:24.098Z,100252.54
2022-09-10T23:31:55.679Z,100252.61
2022-09-10T23:34:23.468Z,100253.73
2022-09-10T23:36:52.446Z,100251.86
2022-09-10T23:39:23.710Z,100246.21
2022-09-10T23:41:56.930Z,100248.04
2022-09-10T23:44:25.931Z,100246.96
2022-09-10T23:46:53.726Z,100246.92
2022-09-10T23:49:23.919Z,100248.70
2022-09-10T23:51:52.130Z,100242.52
2022-09-10T23:54:19.799Z,100248.30
2022-09-10T23:56:47.506Z,100251.51
2022-09-10T23:59:15.346Z,100253.11
